Startpagina
METAR-TAF:

METAR-TAF

Vliegvelden :

Flughafen Mönchengladbach

Mönchengladbach, Duitsland

breedte: 51-13-49N, lengte: 006-30-16E, hoogte: 38 m

Actueel weer

Dit bericht is 43 minuten geleden gemaakt, om 10:20 UTC
Wind 10 kt uit het zuidzuidwesten met uitschieters tot 21 kt, variërend tussen het zuidoosten en het westen
Temperatuur 17°C
Vochtigheid 63%
Druk 1007 hPa
Zicht 10 km of meer
Weinig wolken op 3500 ft

METAR: EDLN 161020Z 20010G21KT 140V270 9999 FEW035 17/10 Q1007

Tijdstip: 13:03 (11:03 UTC)

Verwachting

Dit bericht is 3 uur en het 3 minuten geleden gemaakt, om 08:00 UTC
Verwachting geldig van 16 om 09 UTC tot 16 om 18 UTC
Wind 9 kt uit het zuidzuidwesten
Zicht 10 km of meer
Verspreide wolken op 2000 ft
Gebroken wolken op 4500 ft
Kans 30% :
Tijdelijke
van 16 om 11 UTC tot 16 om 18 UTC
Verspreide wolken op 2500 ft, Cumulonimbus.
regenbuien,

TAF: EDLN 160800Z 1609/1618 20009KT 9999 SCT020 BKN045 PROB30 TEMPO 1611/1618 SHRA SCT025CB

Waarnemingen en weersverwachtingen van meer dan 4000 vliegvelden (METAR en TAF).

De beschikbare stations zijn de gele en rode punten op de kaart.

Ga met uw muis naar het station om de naam te zien.

Klik dan om waarnemingen en weersverwachtingen te zien.

kaart wijzigen: klik op de groene knoppen met een zwart kruis om in te zoomen, op de groene knop met een streepje om uit te zoomen of op de groene pijlen voor aangrenzende kaarten.


METAR-TAF: